sensor_id;sensor_type;location;lat;lon;timestamp;temperature;humidity
19007;DHT22;9636;47.382;8.480;2023-06-04T00:00:42;23.20;87.20
19007;DHT22;9636;47.382;8.480;2023-06-04T00:03:08;23.20;87.30
19007;DHT22;9636;47.382;8.480;2023-06-04T00:05:35;23.20;87.40
19007;DHT22;9636;47.382;8.480;2023-06-04T00:08:02;23.10;87.40
19007;DHT22;9636;47.382;8.480;2023-06-04T00:10:30;23.10;87.40
19007;DHT22;9636;47.382;8.480;2023-06-04T00:12:59;23.10;87.50
19007;DHT22;9636;47.382;8.480;2023-06-04T00:16:07;23.10;87.60
19007;DHT22;9636;47.382;8.480;2023-06-04T00:18:31;23.00;87.70
19007;DHT22;9636;47.382;8.480;2023-06-04T00:20:57;23.00;87.60
19007;DHT22;9636;47.382;8.480;2023-06-04T00:23:24;23.00;87.70
19007;DHT22;9636;47.382;8.480;2023-06-04T00:25:52;22.90;87.70
19007;DHT22;9636;47.382;8.480;2023-06-04T00:28:19;22.90;87.80
19007;DHT22;9636;47.382;8.480;2023-06-04T00:30:46;22.90;87.80
19007;DHT22;9636;47.382;8.480;2023-06-04T00:33:13;22.90;87.90
19007;DHT22;9636;47.382;8.480;2023-06-04T00:35:40;22.90;88.00
19007;DHT22;9636;47.382;8.480;2023-06-04T00:38:06;22.90;87.90
19007;DHT22;9636;47.382;8.480;2023-06-04T00:40:33;22.80;87.90
19007;DHT22;9636;47.382;8.480;2023-06-04T00:43:01;22.80;88.00
19007;DHT22;9636;47.382;8.480;2023-06-04T00:45:28;22.80;88.10
19007;DHT22;9636;47.382;8.480;2023-06-04T00:47:56;22.70;88.10
19007;DHT22;9636;47.382;8.480;2023-06-04T00:50:24;22.70;88.10
19007;DHT22;9636;47.382;8.480;2023-06-04T00:52:51;22.70;88.10
19007;DHT22;9636;47.382;8.480;2023-06-04T00:55:18;22.70;88.20
19007;DHT22;9636;47.382;8.480;2023-06-04T00:57:45;22.70;88.30
19007;DHT22;9636;47.382;8.480;2023-06-04T01:00:14;22.60;88.20
19007;DHT22;9636;47.382;8.480;2023-06-04T01:02:41;22.60;89.10
19007;DHT22;9636;47.382;8.480;2023-06-04T01:05:16;22.60;88.30
19007;DHT22;9636;47.382;8.480;2023-06-04T01:07:45;22.60;88.30
19007;DHT22;9636;47.382;8.480;2023-06-04T01:10:13;22.50;88.30
19007;DHT22;9636;47.382;8.480;2023-06-04T01:12:40;22.50;88.40
19007;DHT22;9636;47.382;8.480;2023-06-04T01:15:08;22.50;88.40
19007;DHT22;9636;47.382;8.480;2023-06-04T01:17:39;22.50;88.50
19007;DHT22;9636;47.382;8.480;2023-06-04T01:20:16;22.40;88.60
19007;DHT22;9636;47.382;8.480;2023-06-04T01:22:55;22.40;88.60
19007;DHT22;9636;47.382;8.480;2023-06-04T01:25:31;22.40;88.60
19007;DHT22;9636;47.382;8.480;2023-06-04T01:27:58;22.40;88.70
19007;DHT22;9636;47.382;8.480;2023-06-04T01:30:28;22.40;88.70
19007;DHT22;9636;47.382;8.480;2023-06-04T01:32:57;22.30;88.70
19007;DHT22;9636;47.382;8.480;2023-06-04T01:35:26;22.30;88.70
19007;DHT22;9636;47.382;8.480;2023-06-04T01:37:52;22.30;88.80
19007;DHT22;9636;47.382;8.480;2023-06-04T01:40:20;22.30;88.80
19007;DHT22;9636;47.382;8.480;2023-06-04T01:42:47;22.30;88.90
19007;DHT22;9636;47.382;8.480;2023-06-04T01:45:13;22.20;88.80
19007;DHT22;9636;47.382;8.480;2023-06-04T01:47:40;22.20;88.90
19007;DHT22;9636;47.382;8.480;2023-06-04T01:50:09;22.20;89.00
19007;DHT22;9636;47.382;8.480;2023-06-04T01:52:39;22.20;89.00
19007;DHT22;9636;47.382;8.480;2023-06-04T01:55:08;22.20;89.00
19007;DHT22;9636;47.382;8.480;2023-06-04T01:57:37;22.10;89.00
19007;DHT22;9636;47.382;8.480;2023-06-04T02:00:06;22.10;89.10
19007;DHT22;9636;47.382;8.480;2023-06-04T02:02:35;22.10;89.10
19007;DHT22;9636;47.382;8.480;2023-06-04T02:05:03;22.00;89.10
19007;DHT22;9636;47.382;8.480;2023-06-04T02:07:34;22.00;89.10
19007;DHT22;9636;47.382;8.480;2023-06-04T02:10:04;22.00;89.20
19007;DHT22;9636;47.382;8.480;2023-06-04T02:12:31;22.00;89.20
19007;DHT22;9636;47.382;8.480;2023-06-04T02:14:58;22.00;89.20
19007;DHT22;9636;47.382;8.480;2023-06-04T02:17:25;22.00;89.20
19007;DHT22;9636;47.382;8.480;2023-06-04T02:19:51;22.00;89.30
19007;DHT22;9636;47.382;8.480;2023-06-04T02:22:19;21.90;89.30
19007;DHT22;9636;47.382;8.480;2023-06-04T02:24:48;21.90;89.30
19007;DHT22;9636;47.382;8.480;2023-06-04T02:27:15;21.90;89.40
19007;DHT22;9636;47.382;8.480;2023-06-04T02:29:41;21.90;89.40
19007;DHT22;9636;47.382;8.480;2023-06-04T02:32:09;21.80;89.30
19007;DHT22;9636;47.382;8.480;2023-06-04T02:34:36;21.80;89.40
19007;DHT22;9636;47.382;8.480;2023-06-04T02:37:03;21.80;89.50
19007;DHT22;9636;47.382;8.480;2023-06-04T02:39:30;21.80;89.50
19007;DHT22;9636;47.382;8.480;2023-06-04T02:41:58;21.80;89.50
19007;DHT22;9636;47.382;8.480;2023-06-04T02:44:25;21.70;89.50
19007;DHT22;9636;47.382;8.480;2023-06-04T02:46:53;21.70;89.50
19007;DHT22;9636;47.382;8.480;2023-06-04T02:49:20;21.70;89.50
19007;DHT22;9636;47.382;8.480;2023-06-04T02:51:47;21.70;89.60
19007;DHT22;9636;47.382;8.480;2023-06-04T02:54:14;21.70;89.50
19007;DHT22;9636;47.382;8.480;2023-06-04T02:56:41;21.70;89.60
19007;DHT22;9636;47.382;8.480;2023-06-04T02:59:10;21.70;89.70
19007;DHT22;9636;47.382;8.480;2023-06-04T03:01:36;21.60;89.60
19007;DHT22;9636;47.382;8.480;2023-06-04T03:04:03;21.60;89.60
19007;DHT22;9636;47.382;8.480;2023-06-04T03:06:35;21.60;89.70
19007;DHT22;9636;47.382;8.480;2023-06-04T03:09:04;21.60;89.70
19007;DHT22;9636;47.382;8.480;2023-06-04T03:11:32;21.60;89.80
19007;DHT22;9636;47.382;8.480;2023-06-04T03:13:59;21.50;89.70
19007;DHT22;9636;47.382;8.480;2023-06-04T03:16:27;21.50;89.70
19007;DHT22;9636;47.382;8.480;2023-06-04T03:18:54;21.50;89.80
19007;DHT22;9636;47.382;8.480;2023-06-04T03:21:21;21.50;89.70
19007;DHT22;9636;47.382;8.480;2023-06-04T03:23:50;21.50;89.80
19007;DHT22;9636;47.382;8.480;2023-06-04T03:26:17;21.50;89.90
19007;DHT22;9636;47.382;8.480;2023-06-04T03:28:44;21.40;89.90
19007;DHT22;9636;47.382;8.480;2023-06-04T03:31:11;21.40;89.90
19007;DHT22;9636;47.382;8.480;2023-06-04T03:33:39;21.40;89.90
19007;DHT22;9636;47.382;8.480;2023-06-04T03:36:06;21.40;89.90
19007;DHT22;9636;47.382;8.480;2023-06-04T03:38:33;21.40;89.90
19007;DHT22;9636;47.382;8.480;2023-06-04T03:40:59;21.40;90.00
19007;DHT22;9636;47.382;8.480;2023-06-04T03:43:26;21.40;90.00
19007;DHT22;9636;47.382;8.480;2023-06-04T03:45:53;21.30;90.00
19007;DHT22;9636;47.382;8.480;2023-06-04T03:48:20;21.40;90.00
19007;DHT22;9636;47.382;8.480;2023-06-04T03:50:48;21.30;90.00
19007;DHT22;9636;47.382;8.480;2023-06-04T03:53:16;21.30;90.00
19007;DHT22;9636;47.382;8.480;2023-06-04T03:55:43;21.30;90.00
19007;DHT22;9636;47.382;8.480;2023-06-04T03:58:09;21.30;90.00
19007;DHT22;9636;47.382;8.480;2023-06-04T04:00:37;21.30;90.00
19007;DHT22;9636;47.382;8.480;2023-06-04T04:03:04;21.30;90.00
19007;DHT22;9636;47.382;8.480;2023-06-04T04:05:35;21.30;90.00
19007;DHT22;9636;47.382;8.480;2023-06-04T04:08:03;21.20;90.00
19007;DHT22;9636;47.382;8.480;2023-06-04T04:10:31;21.20;90.00
19007;DHT22;9636;47.382;8.480;2023-06-04T04:12:58;21.20;90.00
19007;DHT22;9636;47.382;8.480;2023-06-04T04:15:25;21.20;90.00
19007;DHT22;9636;47.382;8.480;2023-06-04T04:17:52;21.20;90.00
19007;DHT22;9636;47.382;8.480;2023-06-04T04:20:19;21.20;90.00
19007;DHT22;9636;47.382;8.480;2023-06-04T04:22:46;21.20;90.00
19007;DHT22;9636;47.382;8.480;2023-06-04T04:25:14;21.20;90.00
19007;DHT22;9636;47.382;8.480;2023-06-04T04:27:41;21.20;90.00
19007;DHT22;9636;47.382;8.480;2023-06-04T04:30:09;21.20;90.00
19007;DHT22;9636;47.382;8.480;2023-06-04T04:32:35;21.20;90.00
19007;DHT22;9636;47.382;8.480;2023-06-04T04:35:04;21.20;89.90
19007;DHT22;9636;47.382;8.480;2023-06-04T04:37:33;21.20;89.90
19007;DHT22;9636;47.382;8.480;2023-06-04T04:40:00;21.20;89.90
19007;DHT22;9636;47.382;8.480;2023-06-04T04:42:30;21.20;89.90
19007;DHT22;9636;47.382;8.480;2023-06-04T04:44:57;21.20;89.80
19007;DHT22;9636;47.382;8.480;2023-06-04T04:47:24;21.20;89.80
19007;DHT22;9636;47.382;8.480;2023-06-04T04:49:51;21.20;89.80
19007;DHT22;9636;47.382;8.480;2023-06-04T04:52:18;21.30;89.80
19007;DHT22;9636;47.382;8.480;2023-06-04T04:54:45;21.30;89.60
19007;DHT22;9636;47.382;8.480;2023-06-04T04:57:12;21.30;89.70
19007;DHT22;9636;47.382;8.480;2023-06-04T04:59:40;21.30;89.60
19007;DHT22;9636;47.382;8.480;2023-06-04T05:02:07;21.30;89.50
19007;DHT22;9636;47.382;8.480;2023-06-04T05:04:34;21.40;89.50
19007;DHT22;9636;47.382;8.480;2023-06-04T05:07:01;21.40;89.40
19007;DHT22;9636;47.382;8.480;2023-06-04T05:09:27;21.40;89.40
19007;DHT22;9636;47.382;8.480;2023-06-04T05:11:54;21.40;89.40
19007;DHT22;9636;47.382;8.480;2023-06-04T05:14:21;21.40;89.30
19007;DHT22;9636;47.382;8.480;2023-06-04T05:16:49;21.40;89.30
19007;DHT22;9636;47.382;8.480;2023-06-04T05:19:16;21.40;89.30
19007;DHT22;9636;47.382;8.480;2023-06-04T05:21:44;21.50;89.30
19007;DHT22;9636;47.382;8.480;2023-06-04T05:24:11;21.50;89.20
19007;DHT22;9636;47.382;8.480;2023-06-04T05:26:37;21.50;89.10
19007;DHT22;9636;47.382;8.480;2023-06-04T05:29:05;21.50;89.10
19007;DHT22;9636;47.382;8.480;2023-06-04T05:31:33;21.60;89.10
19007;DHT22;9636;47.382;8.480;2023-06-04T05:34:02;21.60;89.00
19007;DHT22;9636;47.382;8.480;2023-06-04T05:36:29;21.60;89.00
19007;DHT22;9636;47.382;8.480;2023-06-04T05:38:57;21.60;88.90
19007;DHT22;9636;47.382;8.480;2023-06-04T05:41:25;21.60;88.90
19007;DHT22;9636;47.382;8.480;2023-06-04T05:43:53;21.60;88.70
19007;DHT22;9636;47.382;8.480;2023-06-04T05:46:19;21.70;88.70
19007;DHT22;9636;47.382;8.480;2023-06-04T05:48:47;21.70;88.70
19007;DHT22;9636;47.382;8.480;2023-06-04T05:51:15;21.70;88.70
19007;DHT22;9636;47.382;8.480;2023-06-04T05:53:42;21.70;88.60
19007;DHT22;9636;47.382;8.480;2023-06-04T05:56:09;21.70;88.50
19007;DHT22;9636;47.382;8.480;2023-06-04T05:58:35;21.80;88.50
19007;DHT22;9636;47.382;8.480;2023-06-04T06:01:03;21.80;88.50
19007;DHT22;9636;47.382;8.480;2023-06-04T06:03:30;21.80;88.30
19007;DHT22;9636;47.382;8.480;2023-06-04T06:05:57;21.80;88.30
19007;DHT22;9636;47.382;8.480;2023-06-04T06:08:26;21.80;88.30
19007;DHT22;9636;47.382;8.480;2023-06-04T06:10:53;21.90;88.20
19007;DHT22;9636;47.382;8.480;2023-06-04T06:13:21;21.90;88.20
19007;DHT22;9636;47.382;8.480;2023-06-04T06:15:48;21.90;88.10
19007;DHT22;9636;47.382;8.480;2023-06-04T06:18:18;21.90;88.10
19007;DHT22;9636;47.382;8.480;2023-06-04T06:20:45;22.00;88.00
19007;DHT22;9636;47.382;8.480;2023-06-04T06:23:12;22.00;88.00
19007;DHT22;9636;47.382;8.480;2023-06-04T06:25:41;22.00;87.90
19007;DHT22;9636;47.382;8.480;2023-06-04T06:28:11;22.00;87.90
19007;DHT22;9636;47.382;8.480;2023-06-04T06:30:38;22.00;87.80
19007;DHT22;9636;47.382;8.480;2023-06-04T06:33:05;22.10;89.10
19007;DHT22;9636;47.382;8.480;2023-06-04T06:35:32;22.10;88.90
19007;DHT22;9636;47.382;8.480;2023-06-04T06:37:59;22.10;88.70
19007;DHT22;9636;47.382;8.480;2023-06-04T06:40:25;22.10;88.80
19007;DHT22;9636;47.382;8.480;2023-06-04T06:42:54;22.10;88.60
19007;DHT22;9636;47.382;8.480;2023-06-04T06:45:20;22.20;88.60
19007;DHT22;9636;47.382;8.480;2023-06-04T06:47:47;22.20;88.70
19007;DHT22;9636;47.382;8.480;2023-06-04T06:50:14;22.30;88.70
19007;DHT22;9636;47.382;8.480;2023-06-04T06:52:41;22.30;88.60
19007;DHT22;9636;47.382;8.480;2023-06-04T06:55:08;22.30;88.50
19007;DHT22;9636;47.382;8.480;2023-06-04T06:57:35;22.40;88.50
19007;DHT22;9636;47.382;8.480;2023-06-04T07:00:04;22.40;88.40
19007;DHT22;9636;47.382;8.480;2023-06-04T07:02:32;22.40;88.40
19007;DHT22;9636;47.382;8.480;2023-06-04T07:04:59;22.50;88.30
19007;DHT22;9636;47.382;8.480;2023-06-04T07:07:26;22.50;88.10
19007;DHT22;9636;47.382;8.480;2023-06-04T07:09:53;22.50;88.10
19007;DHT22;9636;47.382;8.480;2023-06-04T07:12:19;22.60;91.40
19007;DHT22;9636;47.382;8.480;2023-06-04T07:14:46;22.70;92.20
19007;DHT22;9636;47.382;8.480;2023-06-04T07:17:14;22.80;92.00
19007;DHT22;9636;47.382;8.480;2023-06-04T07:19:41;22.80;92.00
19007;DHT22;9636;47.382;8.480;2023-06-04T07:22:08;22.90;91.70
19007;DHT22;9636;47.382;8.480;2023-06-04T07:24:35;23.00;91.50
19007;DHT22;9636;47.382;8.480;2023-06-04T07:27:10;23.20;91.30
19007;DHT22;9636;47.382;8.480;2023-06-04T07:29:37;23.30;91.10
19007;DHT22;9636;47.382;8.480;2023-06-04T07:32:04;23.40;90.90
19007;DHT22;9636;47.382;8.480;2023-06-04T07:34:32;23.50;90.60
19007;DHT22;9636;47.382;8.480;2023-06-04T07:36:59;23.70;90.50
19007;DHT22;9636;47.382;8.480;2023-06-04T07:39:26;23.80;90.30
19007;DHT22;9636;47.382;8.480;2023-06-04T07:41:53;23.90;90.10
19007;DHT22;9636;47.382;8.480;2023-06-04T07:44:20;24.10;90.00
19007;DHT22;9636;47.382;8.480;2023-06-04T07:46:47;24.10;89.90
19007;DHT22;9636;47.382;8.480;2023-06-04T07:49:13;24.20;89.60
19007;DHT22;9636;47.382;8.480;2023-06-04T07:51:42;24.30;89.60
19007;DHT22;9636;47.382;8.480;2023-06-04T07:54:08;24.40;89.20
19007;DHT22;9636;47.382;8.480;2023-06-04T07:56:35;24.60;89.10
19007;DHT22;9636;47.382;8.480;2023-06-04T07:59:02;24.60;88.90
19007;DHT22;9636;47.382;8.480;2023-06-04T08:01:29;24.70;88.80
19007;DHT22;9636;47.382;8.480;2023-06-04T08:03:56;24.80;88.50
19007;DHT22;9636;47.382;8.480;2023-06-04T08:06:24;25.00;88.00
19007;DHT22;9636;47.382;8.480;2023-06-04T08:08:53;25.20;87.50
19007;DHT22;9636;47.382;8.480;2023-06-04T08:11:20;25.40;86.90
19007;DHT22;9636;47.382;8.480;2023-06-04T08:13:48;25.60;86.40
19007;DHT22;9636;47.382;8.480;2023-06-04T08:16:15;25.80;86.00
19007;DHT22;9636;47.382;8.480;2023-06-04T08:18:42;25.90;85.50
19007;DHT22;9636;47.382;8.480;2023-06-04T08:21:09;26.00;85.60
19007;DHT22;9636;47.382;8.480;2023-06-04T08:23:37;26.10;85.30
19007;DHT22;9636;47.382;8.480;2023-06-04T08:26:06;26.20;84.90
19007;DHT22;9636;47.382;8.480;2023-06-04T08:28:33;26.40;84.60
19007;DHT22;9636;47.382;8.480;2023-06-04T08:30:59;27.30;82.30
19007;DHT22;9636;47.382;8.480;2023-06-04T08:33:26;27.20;82.30
19007;DHT22;9636;47.382;8.480;2023-06-04T08:35:53;26.90;83.20
19007;DHT22;9636;47.382;8.480;2023-06-04T08:38:21;26.90;83.20
19007;DHT22;9636;47.382;8.480;2023-06-04T08:40:52;27.10;83.00
19007;DHT22;9636;47.382;8.480;2023-06-04T08:43:21;27.20;82.80
19007;DHT22;9636;47.382;8.480;2023-06-04T08:45:49;27.20;82.40
19007;DHT22;9636;47.382;8.480;2023-06-04T08:48:18;27.30;82.30
19007;DHT22;9636;47.382;8.480;2023-06-04T08:50:48;27.20;82.60
19007;DHT22;9636;47.382;8.480;2023-06-04T08:53:15;27.20;82.50
19007;DHT22;9636;47.382;8.480;2023-06-04T08:55:42;27.20;82.40
19007;DHT22;9636;47.382;8.480;2023-06-04T08:58:10;27.20;82.50
19007;DHT22;9636;47.382;8.480;2023-06-04T09:00:39;27.20;82.60
19007;DHT22;9636;47.382;8.480;2023-06-04T09:03:06;27.20;82.70
19007;DHT22;9636;47.382;8.480;2023-06-04T09:05:35;27.20;82.60
19007;DHT22;9636;47.382;8.480;2023-06-04T09:08:04;27.20;82.50
19007;DHT22;9636;47.382;8.480;2023-06-04T09:10:35;27.20;82.40
19007;DHT22;9636;47.382;8.480;2023-06-04T09:13:03;27.30;82.30
19007;DHT22;9636;47.382;8.480;2023-06-04T09:15:33;27.30;82.30
19007;DHT22;9636;47.382;8.480;2023-06-04T09:18:01;27.30;82.30
19007;DHT22;9636;47.382;8.480;2023-06-04T09:20:28;27.30;82.30
19007;DHT22;9636;47.382;8.480;2023-06-04T09:22:54;27.30;82.20
19007;DHT22;9636;47.382;8.480;2023-06-04T09:25:22;27.30;82.20
19007;DHT22;9636;47.382;8.480;2023-06-04T09:27:51;27.40;82.20
19007;DHT22;9636;47.382;8.480;2023-06-04T09:30:18;27.40;82.20
19007;DHT22;9636;47.382;8.480;2023-06-04T09:32:44;27.40;82.00
19007;DHT22;9636;47.382;8.480;2023-06-04T09:35:14;27.30;81.70
19007;DHT22;9636;47.382;8.480;2023-06-04T09:37:41;27.20;82.50
19007;DHT22;9636;47.382;8.480;2023-06-04T09:40:09;27.20;83.10
19007;DHT22;9636;47.382;8.480;2023-06-04T09:42:42;27.20;83.20
19007;DHT22;9636;47.382;8.480;2023-06-04T09:45:10;27.20;83.20
19007;DHT22;9636;47.382;8.480;2023-06-04T09:47:41;27.20;83.30
19007;DHT22;9636;47.382;8.480;2023-06-04T09:50:09;27.20;82.70
19007;DHT22;9636;47.382;8.480;2023-06-04T09:52:37;27.20;84.90
19007;DHT22;9636;47.382;8.480;2023-06-04T09:55:15;27.40;84.60
19007;DHT22;9636;47.382;8.480;2023-06-04T09:57:45;27.50;85.00
19007;DHT22;9636;47.382;8.480;2023-06-04T10:00:14;27.60;85.20
19007;DHT22;9636;47.382;8.480;2023-06-04T10:02:43;27.60;85.40
19007;DHT22;9636;47.382;8.480;2023-06-04T10:05:11;27.80;85.10
19007;DHT22;9636;47.382;8.480;2023-06-04T10:07:42;28.00;85.20
19007;DHT22;9636;47.382;8.480;2023-06-04T10:10:11;28.10;84.90
19007;DHT22;9636;47.382;8.480;2023-06-04T10:12:38;28.20;84.80
19007;DHT22;9636;47.382;8.480;2023-06-04T10:15:10;28.30;85.30
19007;DHT22;9636;47.382;8.480;2023-06-04T10:17:37;28.40;85.30
19007;DHT22;9636;47.382;8.480;2023-06-04T10:20:06;28.60;85.20
19007;DHT22;9636;47.382;8.480;2023-06-04T10:22:34;28.70;85.00
19007;DHT22;9636;47.382;8.480;2023-06-04T10:25:02;28.80;85.00
19007;DHT22;9636;47.382;8.480;2023-06-04T10:27:30;29.00;84.50
19007;DHT22;9636;47.382;8.480;2023-06-04T10:29:57;29.20;85.00
19007;DHT22;9636;47.382;8.480;2023-06-04T10:32:27;29.50;83.30
19007;DHT22;9636;47.382;8.480;2023-06-04T10:34:54;29.50;83.30
19007;DHT22;9636;47.382;8.480;2023-06-04T10:37:24;29.30;83.50
19007;DHT22;9636;47.382;8.480;2023-06-04T10:39:52;29.20;84.00
19007;DHT22;9636;47.382;8.480;2023-06-04T10:42:22;29.20;84.50
19007;DHT22;9636;47.382;8.480;2023-06-04T10:44:51;29.10;84.20
19007;DHT22;9636;47.382;8.480;2023-06-04T10:47:20;29.10;84.40
19007;DHT22;9636;47.382;8.480;2023-06-04T10:49:48;29.20;84.30
19007;DHT22;9636;47.382;8.480;2023-06-04T10:52:16;29.20;84.40
19007;DHT22;9636;47.382;8.480;2023-06-04T10:54:44;29.00;81.80
19007;DHT22;9636;47.382;8.480;2023-06-04T10:57:12;28.70;79.90
19007;DHT22;9636;47.382;8.480;2023-06-04T10:59:40;28.60;81.80
19007;DHT22;9636;47.382;8.480;2023-06-04T11:02:08;28.40;82.00
19007;DHT22;9636;47.382;8.480;2023-06-04T11:04:35;28.30;82.90
19007;DHT22;9636;47.382;8.480;2023-06-04T11:07:04;28.30;84.30
19007;DHT22;9636;47.382;8.480;2023-06-04T11:09:34;28.40;80.40
19007;DHT22;9636;47.382;8.480;2023-06-04T11:12:03;28.50;83.50
19007;DHT22;9636;47.382;8.480;2023-06-04T11:14:30;28.40;82.90
19007;DHT22;9636;47.382;8.480;2023-06-04T11:17:08;28.30;82.70
19007;DHT22;9636;47.382;8.480;2023-06-04T11:19:36;28.20;81.50
19007;DHT22;9636;47.382;8.480;2023-06-04T11:22:03;28.30;82.30
19007;DHT22;9636;47.382;8.480;2023-06-04T11:24:30;28.40;80.20
19007;DHT22;9636;47.382;8.480;2023-06-04T11:26:58;28.40;82.20
19007;DHT22;9636;47.382;8.480;2023-06-04T11:29:26;28.40;81.10
19007;DHT22;9636;47.382;8.480;2023-06-04T11:31:53;28.50;82.80
19007;DHT22;9636;47.382;8.480;2023-06-04T11:34:24;28.60;82.70
19007;DHT22;9636;47.382;8.480;2023-06-04T11:36:52;28.60;81.40
19007;DHT22;9636;47.382;8.480;2023-06-04T11:39:19;28.60;82.20
19007;DHT22;9636;47.382;8.480;2023-06-04T11:41:47;28.70;82.60
19007;DHT22;9636;47.382;8.480;2023-06-04T11:44:18;28.90;79.60
19007;DHT22;9636;47.382;8.480;2023-06-04T11:46:45;28.80;77.70
19007;DHT22;9636;47.382;8.480;2023-06-04T11:49:16;28.80;78.50
19007;DHT22;9636;47.382;8.480;2023-06-04T11:51:47;28.80;77.20
19007;DHT22;9636;47.382;8.480;2023-06-04T11:54:14;29.00;76.70
19007;DHT22;9636;47.382;8.480;2023-06-04T11:56:41;29.00;76.50
19007;DHT22;9636;47.382;8.480;2023-06-04T11:59:14;29.10;77.40
19007;DHT22;9636;47.382;8.480;2023-06-04T12:01:42;29.00;75.50
19007;DHT22;9636;47.382;8.480;2023-06-04T12:04:12;29.00;75.90
19007;DHT22;9636;47.382;8.480;2023-06-04T12:06:52;29.10;76.80
19007;DHT22;9636;47.382;8.480;2023-06-04T12:09:20;29.10;77.30
19007;DHT22;9636;47.382;8.480;2023-06-04T12:11:48;29.10;75.80
19007;DHT22;9636;47.382;8.480;2023-06-04T12:14:16;29.10;76.90
19007;DHT22;9636;47.382;8.480;2023-06-04T12:16:53;29.10;75.10
19007;DHT22;9636;47.382;8.480;2023-06-04T12:19:20;29.10;73.50
19007;DHT22;9636;47.382;8.480;2023-06-04T12:21:58;29.10;73.50
19007;DHT22;9636;47.382;8.480;2023-06-04T12:24:27;29.20;70.60
19007;DHT22;9636;47.382;8.480;2023-06-04T12:27:02;29.20;71.60
19007;DHT22;9636;47.382;8.480;2023-06-04T12:29:29;29.20;74.10
19007;DHT22;9636;47.382;8.480;2023-06-04T12:32:02;29.40;73.20
19007;DHT22;9636;47.382;8.480;2023-06-04T12:34:30;29.50;75.10
19007;DHT22;9636;47.382;8.480;2023-06-04T12:36:57;29.50;73.90
19007;DHT22;9636;47.382;8.480;2023-06-04T12:39:24;29.50;72.80
19007;DHT22;9636;47.382;8.480;2023-06-04T12:41:52;29.50;72.50
19007;DHT22;9636;47.382;8.480;2023-06-04T12:44:19;29.60;72.50
19007;DHT22;9636;47.382;8.480;2023-06-04T12:46:46;29.60;70.00
19007;DHT22;9636;47.382;8.480;2023-06-04T12:49:13;29.50;69.90
19007;DHT22;9636;47.382;8.480;2023-06-04T12:51:40;29.50;68.10
19007;DHT22;9636;47.382;8.480;2023-06-04T12:54:07;29.40;67.90
19007;DHT22;9636;47.382;8.480;2023-06-04T12:56:34;29.30;68.40
19007;DHT22;9636;47.382;8.480;2023-06-04T12:59:02;29.30;69.00
19007;DHT22;9636;47.382;8.480;2023-06-04T13:01:29;29.30;68.60
19007;DHT22;9636;47.382;8.480;2023-06-04T13:03:56;29.30;70.20
19007;DHT22;9636;47.382;8.480;2023-06-04T13:06:23;29.40;70.10
19007;DHT22;9636;47.382;8.480;2023-06-04T13:08:49;29.50;70.50
19007;DHT22;9636;47.382;8.480;2023-06-04T13:11:16;29.40;69.00
19007;DHT22;9636;47.382;8.480;2023-06-04T13:13:43;29.40;68.80
19007;DHT22;9636;47.382;8.480;2023-06-04T13:16:11;29.40;68.70
19007;DHT22;9636;47.382;8.480;2023-06-04T13:18:38;29.40;68.60
19007;DHT22;9636;47.382;8.480;2023-06-04T13:21:05;29.30;68.50
19007;DHT22;9636;47.382;8.480;2023-06-04T13:23:32;29.30;68.30
19007;DHT22;9636;47.382;8.480;2023-06-04T13:25:58;29.40;68.60
19007;DHT22;9636;47.382;8.480;2023-06-04T13:28:26;29.40;70.60
19007;DHT22;9636;47.382;8.480;2023-06-04T13:30:53;29.40;66.60
19007;DHT22;9636;47.382;8.480;2023-06-04T13:33:21;29.30;68.20
19007;DHT22;9636;47.382;8.480;2023-06-04T13:35:48;29.30;69.60
19007;DHT22;9636;47.382;8.480;2023-06-04T13:38:15;29.30;69.10
19007;DHT22;9636;47.382;8.480;2023-06-04T13:40:42;29.50;70.10
19007;DHT22;9636;47.382;8.480;2023-06-04T13:43:10;29.40;67.60
19007;DHT22;9636;47.382;8.480;2023-06-04T13:45:37;29.30;69.40
19007;DHT22;9636;47.382;8.480;2023-06-04T13:48:05;29.30;68.20
19007;DHT22;9636;47.382;8.480;2023-06-04T13:50:34;29.40;68.80
19007;DHT22;9636;47.382;8.480;2023-06-04T13:53:01;29.40;68.10
19007;DHT22;9636;47.382;8.480;2023-06-04T13:55:29;29.40;68.10
19007;DHT22;9636;47.382;8.480;2023-06-04T13:57:55;29.40;68.60
19007;DHT22;9636;47.382;8.480;2023-06-04T14:00:22;29.30;67.40
19007;DHT22;9636;47.382;8.480;2023-06-04T14:02:49;29.30;67.40
19007;DHT22;9636;47.382;8.480;2023-06-04T14:05:16;29.40;68.20
19007;DHT22;9636;47.382;8.480;2023-06-04T14:07:44;29.40;69.50
19007;DHT22;9636;47.382;8.480;2023-06-04T14:10:11;29.30;69.40
19007;DHT22;9636;47.382;8.480;2023-06-04T14:12:39;29.30;68.40
19007;DHT22;9636;47.382;8.480;2023-06-04T14:15:07;29.30;67.70
19007;DHT22;9636;47.382;8.480;2023-06-04T14:17:35;29.40;67.60
19007;DHT22;9636;47.382;8.480;2023-06-04T14:20:02;29.30;67.20
19007;DHT22;9636;47.382;8.480;2023-06-04T14:22:33;29.20;66.60
19007;DHT22;9636;47.382;8.480;2023-06-04T14:25:02;29.20;69.20
19007;DHT22;9636;47.382;8.480;2023-06-04T14:27:28;29.20;68.40
19007;DHT22;9636;47.382;8.480;2023-06-04T14:29:55;29.20;69.00
19007;DHT22;9636;47.382;8.480;2023-06-04T14:32:22;29.10;68.50
19007;DHT22;9636;47.382;8.480;2023-06-04T14:34:49;29.10;67.30
19007;DHT22;9636;47.382;8.480;2023-06-04T14:37:16;29.10;67.70
19007;DHT22;9636;47.382;8.480;2023-06-04T14:39:45;29.20;66.60
19007;DHT22;9636;47.382;8.480;2023-06-04T14:42:13;29.10;66.40
19007;DHT22;9636;47.382;8.480;2023-06-04T14:44:40;29.10;67.00
19007;DHT22;9636;47.382;8.480;2023-06-04T14:47:07;29.10;67.70
19007;DHT22;9636;47.382;8.480;2023-06-04T14:49:34;29.20;67.50
19007;DHT22;9636;47.382;8.480;2023-06-04T14:52:01;29.20;67.40
19007;DHT22;9636;47.382;8.480;2023-06-04T14:54:28;29.10;66.30
19007;DHT22;9636;47.382;8.480;2023-06-04T14:56:55;29.20;66.60
19007;DHT22;9636;47.382;8.480;2023-06-04T14:59:26;29.30;66.20
19007;DHT22;9636;47.382;8.480;2023-06-04T15:01:53;29.30;66.20
19007;DHT22;9636;47.382;8.480;2023-06-04T15:04:20;29.30;66.90
19007;DHT22;9636;47.382;8.480;2023-06-04T15:06:48;29.20;66.60
19007;DHT22;9636;47.382;8.480;2023-06-04T15:09:26;29.30;65.40
19007;DHT22;9636;47.382;8.480;2023-06-04T15:11:57;29.30;64.80
19007;DHT22;9636;47.382;8.480;2023-06-04T15:14:25;29.20;65.90
19007;DHT22;9636;47.382;8.480;2023-06-04T15:16:52;29.30;66.20
19007;DHT22;9636;47.382;8.480;2023-06-04T15:19:19;29.20;66.60
19007;DHT22;9636;47.382;8.480;2023-06-04T15:21:46;29.20;65.20
19007;DHT22;9636;47.382;8.480;2023-06-04T15:24:13;29.20;66.50
19007;DHT22;9636;47.382;8.480;2023-06-04T15:26:40;29.20;65.80
19007;DHT22;9636;47.382;8.480;2023-06-04T15:29:07;29.20;66.30
19007;DHT22;9636;47.382;8.480;2023-06-04T15:31:35;29.20;66.70
19007;DHT22;9636;47.382;8.480;2023-06-04T15:34:02;29.30;66.40
19007;DHT22;9636;47.382;8.480;2023-06-04T15:36:29;29.20;65.70
19007;DHT22;9636;47.382;8.480;2023-06-04T15:38:56;29.20;64.40
19007;DHT22;9636;47.382;8.480;2023-06-04T15:41:22;29.20;64.70
19007;DHT22;9636;47.382;8.480;2023-06-04T15:43:51;29.20;63.80
19007;DHT22;9636;47.382;8.480;2023-06-04T15:46:18;29.20;63.90
19007;DHT22;9636;47.382;8.480;2023-06-04T15:48:46;29.10;63.90